In Rescue
 
Open Full Screen Window  High Contrast Mode
March 29, 2020 8:07 PM CDT
Weather Information
Wind Direction
  ---
Wind Speed
  00 kt (0 mph)
Wind Gust
  00 kt (0 mph)
Altimeter
29.98 in
Visibility
10 SM
Temperature
05° C
41° F
Dewpoint
-04° C
25° F
Humidity
53%
1hr Rain Fall
00.00 in.
24hr Rain Fall
00.45 in.
Sky Condition
Clear
VFR

METAR KJMR 300107Z AUTO 00000KT 10SM CLR 05/M04 A2998 RMK AO2

FAA Disclaimer: The data displayed is for advisory purposes only and is not to be used for flight planning or operations.